sensor_id;sensor_type;location;lat;lon;timestamp;P1;durP1;ratioP1;P2;durP2;ratioP2
43676;SDS011;29275;48.800;18.102;2022-08-03T00:01:33;7.38;;;3.60;;
43676;SDS011;29275;48.800;18.102;2022-08-03T00:04:36;3.67;;;3.13;;
43676;SDS011;29275;48.800;18.102;2022-08-03T00:07:38;4.53;;;3.22;;
43676;SDS011;29275;48.800;18.102;2022-08-03T00:10:44;4.47;;;3.38;;
43676;SDS011;29275;48.800;18.102;2022-08-03T00:13:49;6.53;;;3.65;;
43676;SDS011;29275;48.800;18.102;2022-08-03T00:16:52;4.20;;;3.45;;
43676;SDS011;29275;48.800;18.102;2022-08-03T00:19:55;7.72;;;3.75;;
43676;SDS011;29275;48.800;18.102;2022-08-03T00:22:57;4.60;;;3.58;;
43676;SDS011;29275;48.800;18.102;2022-08-03T00:26:01;8.90;;;3.95;;
43676;SDS011;29275;48.800;18.102;2022-08-03T00:29:03;4.28;;;3.55;;
43676;SDS011;29275;48.800;18.102;2022-08-03T00:32:07;11.13;;;3.78;;
43676;SDS011;29275;48.800;18.102;2022-08-03T00:35:12;8.43;;;3.88;;
43676;SDS011;29275;48.800;18.102;2022-08-03T00:38:35;6.72;;;3.97;;
43676;SDS011;29275;48.800;18.102;2022-08-03T00:41:38;5.35;;;3.88;;
43676;SDS011;29275;48.800;18.102;2022-08-03T00:44:42;7.90;;;3.55;;
43676;SDS011;29275;48.800;18.102;2022-08-03T00:47:46;6.85;;;3.45;;
43676;SDS011;29275;48.800;18.102;2022-08-03T00:50:52;8.73;;;3.67;;
43676;SDS011;29275;48.800;18.102;2022-08-03T00:53:54;5.78;;;3.90;;
43676;SDS011;29275;48.800;18.102;2022-08-03T00:56:58;3.90;;;3.10;;
43676;SDS011;29275;48.800;18.102;2022-08-03T01:00:01;5.72;;;3.55;;
43676;SDS011;29275;48.800;18.102;2022-08-03T01:03:07;3.78;;;2.97;;
43676;SDS011;29275;48.800;18.102;2022-08-03T01:06:14;6.50;;;3.45;;
43676;SDS011;29275;48.800;18.102;2022-08-03T01:12:42;6.25;;;3.80;;
43676;SDS011;29275;48.800;18.102;2022-08-03T01:19:45;5.35;;;4.05;;
43676;SDS011;29275;48.800;18.102;2022-08-03T01:32:39;5.13;;;3.90;;
43676;SDS011;29275;48.800;18.102;2022-08-03T01:36:07;4.80;;;3.72;;
43676;SDS011;29275;48.800;18.102;2022-08-03T01:39:12;5.60;;;4.03;;
43676;SDS011;29275;48.800;18.102;2022-08-03T01:42:19;4.88;;;3.85;;
43676;SDS011;29275;48.800;18.102;2022-08-03T01:45:29;5.13;;;3.88;;
43676;SDS011;29275;48.800;18.102;2022-08-03T01:48:35;5.80;;;3.72;;
43676;SDS011;29275;48.800;18.102;2022-08-03T01:51:40;4.53;;;3.60;;
43676;SDS011;29275;48.800;18.102;2022-08-03T01:55:05;6.90;;;3.70;;
43676;SDS011;29275;48.800;18.102;2022-08-03T01:58:13;4.70;;;3.80;;
43676;SDS011;29275;48.800;18.102;2022-08-03T02:01:17;4.32;;;3.85;;
43676;SDS011;29275;48.800;18.102;2022-08-03T02:04:21;5.28;;;3.50;;
43676;SDS011;29275;48.800;18.102;2022-08-03T02:07:27;10.07;;;4.23;;
43676;SDS011;29275;48.800;18.102;2022-08-03T02:10:31;5.95;;;3.47;;
43676;SDS011;29275;48.800;18.102;2022-08-03T02:13:39;4.70;;;3.75;;
43676;SDS011;29275;48.800;18.102;2022-08-03T02:16:44;7.20;;;4.03;;
43676;SDS011;29275;48.800;18.102;2022-08-03T02:19:47;7.28;;;3.47;;
43676;SDS011;29275;48.800;18.102;2022-08-03T02:22:51;4.40;;;3.72;;
43676;SDS011;29275;48.800;18.102;2022-08-03T02:25:56;6.78;;;3.58;;
43676;SDS011;29275;48.800;18.102;2022-08-03T02:29:04;4.78;;;3.88;;
43676;SDS011;29275;48.800;18.102;2022-08-03T02:32:12;8.75;;;4.43;;
43676;SDS011;29275;48.800;18.102;2022-08-03T02:35:17;6.05;;;3.83;;
43676;SDS011;29275;48.800;18.102;2022-08-03T02:38:22;5.05;;;3.83;;
43676;SDS011;29275;48.800;18.102;2022-08-03T02:44:41;4.72;;;4.00;;
43676;SDS011;29275;48.800;18.102;2022-08-03T02:47:48;8.70;;;4.38;;
43676;SDS011;29275;48.800;18.102;2022-08-03T02:50:57;6.28;;;4.68;;
43676;SDS011;29275;48.800;18.102;2022-08-03T02:54:02;5.32;;;4.60;;
43676;SDS011;29275;48.800;18.102;2022-08-03T02:57:08;6.60;;;4.47;;
43676;SDS011;29275;48.800;18.102;2022-08-03T03:00:13;7.55;;;4.93;;
43676;SDS011;29275;48.800;18.102;2022-08-03T03:03:28;6.22;;;4.80;;
43676;SDS011;29275;48.800;18.102;2022-08-03T03:06:40;6.28;;;4.22;;
43676;SDS011;29275;48.800;18.102;2022-08-03T03:09:49;7.97;;;4.57;;
43676;SDS011;29275;48.800;18.102;2022-08-03T03:16:02;15.90;;;4.97;;
43676;SDS011;29275;48.800;18.102;2022-08-03T03:19:09;6.82;;;5.05;;
43676;SDS011;29275;48.800;18.102;2022-08-03T03:22:15;7.30;;;4.57;;
43676;SDS011;29275;48.800;18.102;2022-08-03T03:25:19;7.57;;;4.43;;
43676;SDS011;29275;48.800;18.102;2022-08-03T03:28:26;5.23;;;3.93;;
43676;SDS011;29275;48.800;18.102;2022-08-03T03:31:29;5.53;;;4.20;;
43676;SDS011;29275;48.800;18.102;2022-08-03T03:34:33;5.88;;;4.75;;
43676;SDS011;29275;48.800;18.102;2022-08-03T03:37:36;13.68;;;4.90;;
43676;SDS011;29275;48.800;18.102;2022-08-03T03:40:41;8.38;;;4.63;;
43676;SDS011;29275;48.800;18.102;2022-08-03T03:43:46;5.63;;;4.22;;
43676;SDS011;29275;48.800;18.102;2022-08-03T03:46:52;6.85;;;4.40;;
43676;SDS011;29275;48.800;18.102;2022-08-03T03:49:56;5.72;;;4.07;;
43676;SDS011;29275;48.800;18.102;2022-08-03T03:53:00;5.53;;;4.60;;
43676;SDS011;29275;48.800;18.102;2022-08-03T03:56:03;6.63;;;4.65;;
43676;SDS011;29275;48.800;18.102;2022-08-03T03:59:06;5.72;;;4.35;;
43676;SDS011;29275;48.800;18.102;2022-08-03T04:02:10;6.57;;;5.00;;
43676;SDS011;29275;48.800;18.102;2022-08-03T04:05:16;9.93;;;4.95;;
43676;SDS011;29275;48.800;18.102;2022-08-03T04:08:41;6.15;;;4.53;;
43676;SDS011;29275;48.800;18.102;2022-08-03T04:12:03;9.10;;;4.40;;
43676;SDS011;29275;48.800;18.102;2022-08-03T04:15:07;4.72;;;4.22;;
43676;SDS011;29275;48.800;18.102;2022-08-03T04:18:12;8.55;;;4.90;;
43676;SDS011;29275;48.800;18.102;2022-08-03T04:21:16;6.28;;;4.38;;
43676;SDS011;29275;48.800;18.102;2022-08-03T04:24:21;7.47;;;4.75;;
43676;SDS011;29275;48.800;18.102;2022-08-03T04:27:28;5.32;;;4.40;;
43676;SDS011;29275;48.800;18.102;2022-08-03T04:30:35;4.47;;;4.03;;
43676;SDS011;29275;48.800;18.102;2022-08-03T04:33:38;4.70;;;3.85;;
43676;SDS011;29275;48.800;18.102;2022-08-03T04:36:44;5.40;;;4.18;;
43676;SDS011;29275;48.800;18.102;2022-08-03T04:39:50;5.53;;;3.70;;
43676;SDS011;29275;48.800;18.102;2022-08-03T04:42:58;5.25;;;4.05;;
43676;SDS011;29275;48.800;18.102;2022-08-03T04:46:01;4.65;;;3.75;;
43676;SDS011;29275;48.800;18.102;2022-08-03T04:49:04;5.45;;;4.20;;
43676;SDS011;29275;48.800;18.102;2022-08-03T04:52:07;5.47;;;4.05;;
43676;SDS011;29275;48.800;18.102;2022-08-03T04:55:11;4.70;;;3.55;;
43676;SDS011;29275;48.800;18.102;2022-08-03T04:58:14;8.00;;;3.88;;
43676;SDS011;29275;48.800;18.102;2022-08-03T05:01:17;4.75;;;3.72;;
43676;SDS011;29275;48.800;18.102;2022-08-03T05:04:21;5.03;;;4.00;;
43676;SDS011;29275;48.800;18.102;2022-08-03T05:07:24;3.97;;;3.42;;
43676;SDS011;29275;48.800;18.102;2022-08-03T05:10:37;4.65;;;3.83;;
43676;SDS011;29275;48.800;18.102;2022-08-03T05:13:39;6.32;;;4.35;;
43676;SDS011;29275;48.800;18.102;2022-08-03T05:16:41;5.43;;;3.83;;
43676;SDS011;29275;48.800;18.102;2022-08-03T05:19:43;4.43;;;3.45;;
43676;SDS011;29275;48.800;18.102;2022-08-03T05:22:45;5.35;;;3.58;;
43676;SDS011;29275;48.800;18.102;2022-08-03T05:25:47;4.63;;;3.53;;
43676;SDS011;29275;48.800;18.102;2022-08-03T05:28:50;4.55;;;3.60;;
43676;SDS011;29275;48.800;18.102;2022-08-03T05:31:56;4.33;;;3.70;;
43676;SDS011;29275;48.800;18.102;2022-08-03T05:34:58;10.02;;;3.63;;
43676;SDS011;29275;48.800;18.102;2022-08-03T05:38:20;6.30;;;3.60;;
43676;SDS011;29275;48.800;18.102;2022-08-03T05:41:28;11.15;;;3.40;;
43676;SDS011;29275;48.800;18.102;2022-08-03T05:44:37;3.67;;;3.00;;
43676;SDS011;29275;48.800;18.102;2022-08-03T05:47:43;4.05;;;3.38;;
43676;SDS011;29275;48.800;18.102;2022-08-03T05:50:46;6.75;;;3.10;;
43676;SDS011;29275;48.800;18.102;2022-08-03T05:53:48;7.53;;;3.17;;
43676;SDS011;29275;48.800;18.102;2022-08-03T05:56:50;7.35;;;2.95;;
43676;SDS011;29275;48.800;18.102;2022-08-03T05:59:52;5.22;;;2.67;;
43676;SDS011;29275;48.800;18.102;2022-08-03T06:02:59;4.45;;;2.90;;
43676;SDS011;29275;48.800;18.102;2022-08-03T06:06:01;4.00;;;3.00;;
43676;SDS011;29275;48.800;18.102;2022-08-03T06:09:03;3.67;;;2.35;;
43676;SDS011;29275;48.800;18.102;2022-08-03T06:12:05;4.43;;;2.65;;
43676;SDS011;29275;48.800;18.102;2022-08-03T06:15:14;4.53;;;3.63;;
43676;SDS011;29275;48.800;18.102;2022-08-03T06:18:16;3.55;;;3.00;;
43676;SDS011;29275;48.800;18.102;2022-08-03T06:21:18;3.67;;;3.28;;
43676;SDS011;29275;48.800;18.102;2022-08-03T06:24:23;12.18;;;4.22;;
43676;SDS011;29275;48.800;18.102;2022-08-03T06:27:25;4.22;;;3.50;;
43676;SDS011;29275;48.800;18.102;2022-08-03T06:30:37;5.28;;;3.53;;
43676;SDS011;29275;48.800;18.102;2022-08-03T06:33:40;6.28;;;3.45;;
43676;SDS011;29275;48.800;18.102;2022-08-03T06:37:02;4.47;;;3.03;;
43676;SDS011;29275;48.800;18.102;2022-08-03T06:40:04;4.22;;;2.85;;
43676;SDS011;29275;48.800;18.102;2022-08-03T06:43:06;4.72;;;2.92;;
43676;SDS011;29275;48.800;18.102;2022-08-03T06:46:13;10.25;;;3.35;;
43676;SDS011;29275;48.800;18.102;2022-08-03T06:49:15;3.30;;;2.95;;
43676;SDS011;29275;48.800;18.102;2022-08-03T06:52:17;4.15;;;2.70;;
43676;SDS011;29275;48.800;18.102;2022-08-03T06:55:39;4.40;;;2.53;;
43676;SDS011;29275;48.800;18.102;2022-08-03T06:58:42;5.75;;;2.80;;
43676;SDS011;29275;48.800;18.102;2022-08-03T07:01:44;3.40;;;2.20;;
43676;SDS011;29275;48.800;18.102;2022-08-03T07:04:47;6.43;;;2.63;;
43676;SDS011;29275;48.800;18.102;2022-08-03T07:07:49;3.33;;;2.40;;
43676;SDS011;29275;48.800;18.102;2022-08-03T07:10:52;4.45;;;2.20;;
43676;SDS011;29275;48.800;18.102;2022-08-03T07:13:54;3.42;;;2.70;;
43676;SDS011;29275;48.800;18.102;2022-08-03T07:16:57;4.45;;;2.30;;
43676;SDS011;29275;48.800;18.102;2022-08-03T07:19:59;7.30;;;2.30;;
43676;SDS011;29275;48.800;18.102;2022-08-03T07:23:03;2.95;;;2.40;;
43676;SDS011;29275;48.800;18.102;2022-08-03T07:26:05;3.30;;;2.42;;
43676;SDS011;29275;48.800;18.102;2022-08-03T07:29:07;4.57;;;2.88;;
43676;SDS011;29275;48.800;18.102;2022-08-03T07:32:15;3.85;;;3.10;;
43676;SDS011;29275;48.800;18.102;2022-08-03T07:35:18;2.97;;;2.63;;
43676;SDS011;29275;48.800;18.102;2022-08-03T07:38:25;3.45;;;2.50;;
43676;SDS011;29275;48.800;18.102;2022-08-03T07:41:28;5.15;;;2.80;;
43676;SDS011;29275;48.800;18.102;2022-08-03T07:44:30;4.25;;;2.90;;
43676;SDS011;29275;48.800;18.102;2022-08-03T07:47:32;4.63;;;2.80;;
43676;SDS011;29275;48.800;18.102;2022-08-03T07:50:36;4.25;;;2.40;;
43676;SDS011;29275;48.800;18.102;2022-08-03T07:53:38;3.33;;;2.20;;
43676;SDS011;29275;48.800;18.102;2022-08-03T07:56:48;4.13;;;2.00;;
43676;SDS011;29275;48.800;18.102;2022-08-03T07:59:50;2.25;;;1.73;;
43676;SDS011;29275;48.800;18.102;2022-08-03T08:03:12;2.88;;;1.90;;
43676;SDS011;29275;48.800;18.102;2022-08-03T08:06:14;4.15;;;2.40;;
43676;SDS011;29275;48.800;18.102;2022-08-03T08:09:16;4.30;;;2.53;;
43676;SDS011;29275;48.800;18.102;2022-08-03T08:12:19;3.28;;;2.20;;
43676;SDS011;29275;48.800;18.102;2022-08-03T08:15:21;4.50;;;2.47;;
43676;SDS011;29275;48.800;18.102;2022-08-03T08:18:23;8.32;;;2.30;;
43676;SDS011;29275;48.800;18.102;2022-08-03T08:21:26;7.22;;;2.55;;
43676;SDS011;29275;48.800;18.102;2022-08-03T08:24:48;3.67;;;2.00;;
43676;SDS011;29275;48.800;18.102;2022-08-03T08:27:52;2.50;;;1.80;;
43676;SDS011;29275;48.800;18.102;2022-08-03T08:31:14;2.35;;;1.40;;
43676;SDS011;29275;48.800;18.102;2022-08-03T08:34:16;2.78;;;1.50;;
43676;SDS011;29275;48.800;18.102;2022-08-03T08:37:18;3.20;;;1.42;;
43676;SDS011;29275;48.800;18.102;2022-08-03T08:40:21;4.70;;;1.15;;
43676;SDS011;29275;48.800;18.102;2022-08-03T08:43:23;5.25;;;1.30;;
43676;SDS011;29275;48.800;18.102;2022-08-03T08:46:25;1.67;;;1.30;;
43676;SDS011;29275;48.800;18.102;2022-08-03T08:49:28;2.33;;;1.17;;
43676;SDS011;29275;48.800;18.102;2022-08-03T08:52:30;3.25;;;1.13;;
43676;SDS011;29275;48.800;18.102;2022-08-03T08:55:34;2.10;;;1.08;;
43676;SDS011;29275;48.800;18.102;2022-08-03T08:58:59;1.55;;;1.20;;
43676;SDS011;29275;48.800;18.102;2022-08-03T09:02:04;1.67;;;1.00;;
43676;SDS011;29275;48.800;18.102;2022-08-03T09:05:06;2.63;;;1.10;;
43676;SDS011;29275;48.800;18.102;2022-08-03T09:08:48;3.75;;;1.00;;
43676;SDS011;29275;48.800;18.102;2022-08-03T09:11:50;3.30;;;1.17;;
43676;SDS011;29275;48.800;18.102;2022-08-03T09:15:31;1.67;;;1.08;;
43676;SDS011;29275;48.800;18.102;2022-08-03T09:18:33;2.97;;;1.48;;
43676;SDS011;29275;48.800;18.102;2022-08-03T09:21:36;1.40;;;1.15;;
43676;SDS011;29275;48.800;18.102;2022-08-03T09:24:55;1.67;;;0.98;;
43676;SDS011;29275;48.800;18.102;2022-08-03T09:28:19;1.63;;;1.00;;
43676;SDS011;29275;48.800;18.102;2022-08-03T09:31:45;1.70;;;0.80;;
43676;SDS011;29275;48.800;18.102;2022-08-03T09:34:50;2.05;;;1.20;;
43676;SDS011;29275;48.800;18.102;2022-08-03T09:38:08;2.50;;;1.02;;
43676;SDS011;29275;48.800;18.102;2022-08-03T09:41:21;2.90;;;1.55;;
43676;SDS011;29275;48.800;18.102;2022-08-03T09:44:32;8.15;;;1.50;;
43676;SDS011;29275;48.800;18.102;2022-08-03T09:47:37;2.17;;;1.30;;
43676;SDS011;29275;48.800;18.102;2022-08-03T09:50:58;1.63;;;1.00;;
43676;SDS011;29275;48.800;18.102;2022-08-03T09:54:27;2.53;;;1.17;;
43676;SDS011;29275;48.800;18.102;2022-08-03T09:57:30;4.78;;;1.33;;
43676;SDS011;29275;48.800;18.102;2022-08-03T10:00:32;2.40;;;0.80;;
43676;SDS011;29275;48.800;18.102;2022-08-03T10:03:57;1.85;;;1.10;;
43676;SDS011;29275;48.800;18.102;2022-08-03T10:07:09;2.20;;;1.08;;
43676;SDS011;29275;48.800;18.102;2022-08-03T10:10:11;5.40;;;1.30;;
43676;SDS011;29275;48.800;18.102;2022-08-03T10:13:32;2.00;;;1.40;;
43676;SDS011;29275;48.800;18.102;2022-08-03T10:16:35;2.38;;;1.20;;
43676;SDS011;29275;48.800;18.102;2022-08-03T10:19:41;2.30;;;1.27;;
43676;SDS011;29275;48.800;18.102;2022-08-03T10:22:44;1.30;;;1.00;;
43676;SDS011;29275;48.800;18.102;2022-08-03T10:25:48;2.53;;;1.35;;
43676;SDS011;29275;48.800;18.102;2022-08-03T10:28:53;1.83;;;1.00;;
43676;SDS011;29275;48.800;18.102;2022-08-03T10:31:58;1.83;;;1.27;;
43676;SDS011;29275;48.800;18.102;2022-08-03T10:35:09;2.80;;;1.52;;
43676;SDS011;29275;48.800;18.102;2022-08-03T10:38:28;2.80;;;1.63;;
43676;SDS011;29275;48.800;18.102;2022-08-03T10:41:32;1.92;;;1.42;;
43676;SDS011;29275;48.800;18.102;2022-08-03T10:44:38;3.03;;;1.48;;
43676;SDS011;29275;48.800;18.102;2022-08-03T10:47:41;3.05;;;1.48;;
43676;SDS011;29275;48.800;18.102;2022-08-03T10:50:43;4.50;;;1.52;;
43676;SDS011;29275;48.800;18.102;2022-08-03T10:53:46;1.98;;;1.17;;
43676;SDS011;29275;48.800;18.102;2022-08-03T10:56:55;1.27;;;1.02;;
43676;SDS011;29275;48.800;18.102;2022-08-03T11:03:21;2.28;;;1.55;;
43676;SDS011;29275;48.800;18.102;2022-08-03T11:06:24;2.13;;;1.27;;
43676;SDS011;29275;48.800;18.102;2022-08-03T11:09:26;1.80;;;1.30;;
43676;SDS011;29275;48.800;18.102;2022-08-03T11:12:42;4.10;;;1.40;;
43676;SDS011;29275;48.800;18.102;2022-08-03T11:15:45;1.88;;;1.23;;
43676;SDS011;29275;48.800;18.102;2022-08-03T11:18:59;2.22;;;1.40;;
43676;SDS011;29275;48.800;18.102;2022-08-03T11:22:04;1.65;;;1.10;;
43676;SDS011;29275;48.800;18.102;2022-08-03T11:25:06;3.15;;;1.20;;
43676;SDS011;29275;48.800;18.102;2022-08-03T11:28:28;3.35;;;1.15;;
43676;SDS011;29275;48.800;18.102;2022-08-03T11:38:11;1.80;;;1.30;;
43676;SDS011;29275;48.800;18.102;2022-08-03T11:41:31;1.60;;;1.17;;
43676;SDS011;29275;48.800;18.102;2022-08-03T11:44:45;1.65;;;1.10;;
43676;SDS011;29275;48.800;18.102;2022-08-03T11:47:48;2.00;;;1.08;;
43676;SDS011;29275;48.800;18.102;2022-08-03T11:50:53;1.50;;;1.02;;
43676;SDS011;29275;48.800;18.102;2022-08-03T11:54:03;5.57;;;1.15;;
43676;SDS011;29275;48.800;18.102;2022-08-03T11:57:06;2.17;;;1.52;;
43676;SDS011;29275;48.800;18.102;2022-08-03T12:03:41;1.17;;;0.98;;
43676;SDS011;29275;48.800;18.102;2022-08-03T12:06:59;1.65;;;1.10;;
43676;SDS011;29275;48.800;18.102;2022-08-03T12:13:07;2.60;;;1.13;;
43676;SDS011;29275;48.800;18.102;2022-08-03T12:16:31;2.08;;;1.40;;
43676;SDS011;29275;48.800;18.102;2022-08-03T12:19:40;2.05;;;1.13;;
43676;SDS011;29275;48.800;18.102;2022-08-03T12:22:43;1.40;;;1.17;;
43676;SDS011;29275;48.800;18.102;2022-08-03T12:25:45;2.10;;;1.38;;
43676;SDS011;29275;48.800;18.102;2022-08-03T12:28:49;4.72;;;1.10;;
43676;SDS011;29275;48.800;18.102;2022-08-03T12:31:52;2.50;;;1.00;;
43676;SDS011;29275;48.800;18.102;2022-08-03T12:34:54;2.22;;;1.10;;
43676;SDS011;29275;48.800;18.102;2022-08-03T12:38:01;1.95;;;1.05;;
43676;SDS011;29275;48.800;18.102;2022-08-03T12:41:04;2.10;;;1.10;;
43676;SDS011;29275;48.800;18.102;2022-08-03T12:44:08;1.27;;;0.98;;
43676;SDS011;29275;48.800;18.102;2022-08-03T12:47:11;3.00;;;0.93;;
43676;SDS011;29275;48.800;18.102;2022-08-03T12:50:22;1.30;;;0.90;;
43676;SDS011;29275;48.800;18.102;2022-08-03T12:53:32;1.73;;;1.20;;
43676;SDS011;29275;48.800;18.102;2022-08-03T12:56:33;2.10;;;1.23;;
43676;SDS011;29275;48.800;18.102;2022-08-03T12:59:37;1.52;;;1.02;;
43676;SDS011;29275;48.800;18.102;2022-08-03T13:06:26;2.15;;;1.05;;
43676;SDS011;29275;48.800;18.102;2022-08-03T13:09:28;1.73;;;1.10;;
43676;SDS011;29275;48.800;18.102;2022-08-03T13:12:32;1.80;;;0.98;;
43676;SDS011;29275;48.800;18.102;2022-08-03T13:15:36;2.45;;;1.00;;
43676;SDS011;29275;48.800;18.102;2022-08-03T13:18:48;1.80;;;1.23;;
43676;SDS011;29275;48.800;18.102;2022-08-03T13:21:53;1.63;;;1.20;;
43676;SDS011;29275;48.800;18.102;2022-08-03T13:25:05;4.15;;;1.10;;
43676;SDS011;29275;48.800;18.102;2022-08-03T13:28:07;7.32;;;1.15;;
43676;SDS011;29275;48.800;18.102;2022-08-03T13:31:14;1.70;;;1.20;;
43676;SDS011;29275;48.800;18.102;2022-08-03T13:34:17;2.47;;;1.13;;
43676;SDS011;29275;48.800;18.102;2022-08-03T13:37:24;1.67;;;1.00;;
43676;SDS011;29275;48.800;18.102;2022-08-03T13:40:27;1.33;;;1.10;;
43676;SDS011;29275;48.800;18.102;2022-08-03T13:43:30;3.58;;;0.90;;
43676;SDS011;29275;48.800;18.102;2022-08-03T13:46:32;1.23;;;0.80;;
43676;SDS011;29275;48.800;18.102;2022-08-03T13:49:34;4.00;;;1.00;;
43676;SDS011;29275;48.800;18.102;2022-08-03T13:52:37;1.40;;;0.90;;
43676;SDS011;29275;48.800;18.102;2022-08-03T13:55:39;1.85;;;1.02;;
43676;SDS011;29275;48.800;18.102;2022-08-03T13:58:42;0.95;;;0.80;;
43676;SDS011;29275;48.800;18.102;2022-08-03T14:01:44;1.58;;;0.80;;
43676;SDS011;29275;48.800;18.102;2022-08-03T14:04:56;1.38;;;0.98;;
43676;SDS011;29275;48.800;18.102;2022-08-03T14:07:58;2.08;;;0.80;;
43676;SDS011;29275;48.800;18.102;2022-08-03T14:11:05;1.67;;;0.80;;
43676;SDS011;29275;48.800;18.102;2022-08-03T14:14:08;2.08;;;0.90;;
43676;SDS011;29275;48.800;18.102;2022-08-03T14:17:11;2.17;;;0.70;;
43676;SDS011;29275;48.800;18.102;2022-08-03T14:20:16;2.38;;;0.70;;
43676;SDS011;29275;48.800;18.102;2022-08-03T14:23:38;1.20;;;0.82;;
43676;SDS011;29275;48.800;18.102;2022-08-03T14:26:41;2.63;;;0.82;;
43676;SDS011;29275;48.800;18.102;2022-08-03T14:29:43;3.25;;;0.85;;
43676;SDS011;29275;48.800;18.102;2022-08-03T14:32:45;1.33;;;0.80;;
43676;SDS011;29275;48.800;18.102;2022-08-03T14:35:47;1.23;;;0.98;;
43676;SDS011;29275;48.800;18.102;2022-08-03T14:38:50;1.30;;;0.85;;
43676;SDS011;29275;48.800;18.102;2022-08-03T14:41:52;1.27;;;0.73;;
43676;SDS011;29275;48.800;18.102;2022-08-03T14:44:54;1.38;;;0.90;;
43676;SDS011;29275;48.800;18.102;2022-08-03T14:48:03;3.30;;;1.00;;
43676;SDS011;29275;48.800;18.102;2022-08-03T14:51:26;1.85;;;1.02;;
43676;SDS011;29275;48.800;18.102;2022-08-03T14:54:32;1.42;;;0.80;;
43676;SDS011;29275;48.800;18.102;2022-08-03T14:57:34;1.23;;;0.70;;
43676;SDS011;29275;48.800;18.102;2022-08-03T15:00:36;1.70;;;0.70;;
43676;SDS011;29275;48.800;18.102;2022-08-03T15:03:38;1.90;;;0.95;;
43676;SDS011;29275;48.800;18.102;2022-08-03T15:06:40;1.77;;;0.77;;
43676;SDS011;29275;48.800;18.102;2022-08-03T15:09:46;0.80;;;0.60;;
43676;SDS011;29275;48.800;18.102;2022-08-03T15:12:49;1.20;;;0.90;;
43676;SDS011;29275;48.800;18.102;2022-08-03T15:15:52;1.10;;;0.60;;
43676;SDS011;29275;48.800;18.102;2022-08-03T15:18:54;0.70;;;0.60;;
43676;SDS011;29275;48.800;18.102;2022-08-03T15:21:56;2.72;;;0.70;;
43676;SDS011;29275;48.800;18.102;2022-08-03T15:25:02;1.40;;;0.80;;
43676;SDS011;29275;48.800;18.102;2022-08-03T15:28:25;1.42;;;0.80;;
43676;SDS011;29275;48.800;18.102;2022-08-03T15:31:28;1.30;;;0.80;;
43676;SDS011;29275;48.800;18.102;2022-08-03T15:34:32;1.60;;;0.77;;
43676;SDS011;29275;48.800;18.102;2022-08-03T15:37:34;1.13;;;0.80;;
43676;SDS011;29275;48.800;18.102;2022-08-03T15:40:37;1.25;;;0.80;;
43676;SDS011;29275;48.800;18.102;2022-08-03T15:43:40;2.70;;;0.70;;
43676;SDS011;29275;48.800;18.102;2022-08-03T15:46:50;0.90;;;0.70;;
43676;SDS011;29275;48.800;18.102;2022-08-03T15:49:53;1.20;;;0.70;;
43676;SDS011;29275;48.800;18.102;2022-08-03T15:52:56;1.15;;;0.70;;
43676;SDS011;29275;48.800;18.102;2022-08-03T15:56:00;2.17;;;0.90;;
43676;SDS011;29275;48.800;18.102;2022-08-03T15:59:10;3.58;;;0.80;;
43676;SDS011;29275;48.800;18.102;2022-08-03T16:02:17;1.75;;;0.70;;
43676;SDS011;29275;48.800;18.102;2022-08-03T16:05:19;2.50;;;0.82;;
43676;SDS011;29275;48.800;18.102;2022-08-03T16:08:25;1.37;;;0.80;;
43676;SDS011;29275;48.800;18.102;2022-08-03T16:11:28;1.45;;;0.80;;
43676;SDS011;29275;48.800;18.102;2022-08-03T16:14:31;0.73;;;0.50;;
43676;SDS011;29275;48.800;18.102;2022-08-03T16:17:51;0.63;;;0.43;;
43676;SDS011;29275;48.800;18.102;2022-08-03T16:20:54;1.55;;;0.90;;
43676;SDS011;29275;48.800;18.102;2022-08-03T16:23:58;1.00;;;0.70;;
43676;SDS011;29275;48.800;18.102;2022-08-03T16:27:09;0.90;;;0.70;;
43676;SDS011;29275;48.800;18.102;2022-08-03T16:30:33;1.70;;;0.63;;
43676;SDS011;29275;48.800;18.102;2022-08-03T16:33:37;1.60;;;0.80;;
43676;SDS011;29275;48.800;18.102;2022-08-03T16:36:41;1.75;;;0.73;;
43676;SDS011;29275;48.800;18.102;2022-08-03T16:39:45;1.17;;;0.73;;
43676;SDS011;29275;48.800;18.102;2022-08-03T16:42:48;0.80;;;0.65;;
43676;SDS011;29275;48.800;18.102;2022-08-03T16:45:52;0.90;;;0.57;;
43676;SDS011;29275;48.800;18.102;2022-08-03T16:48:57;1.25;;;0.70;;
43676;SDS011;29275;48.800;18.102;2022-08-03T16:52:00;5.13;;;0.88;;
43676;SDS011;29275;48.800;18.102;2022-08-03T16:55:05;0.88;;;0.65;;
43676;SDS011;29275;48.800;18.102;2022-08-03T16:58:16;1.08;;;0.70;;
43676;SDS011;29275;48.800;18.102;2022-08-03T17:01:40;4.30;;;0.80;;
43676;SDS011;29275;48.800;18.102;2022-08-03T17:04:47;3.05;;;0.70;;
43676;SDS011;29275;48.800;18.102;2022-08-03T17:07:52;1.15;;;0.60;;
43676;SDS011;29275;48.800;18.102;2022-08-03T17:10:54;6.35;;;1.45;;
43676;SDS011;29275;48.800;18.102;2022-08-03T17:13:57;4.10;;;0.90;;
43676;SDS011;29275;48.800;18.102;2022-08-03T17:17:01;0.60;;;0.57;;
43676;SDS011;29275;48.800;18.102;2022-08-03T17:20:09;1.80;;;0.70;;
43676;SDS011;29275;48.800;18.102;2022-08-03T17:26:38;1.45;;;0.60;;
43676;SDS011;29275;48.800;18.102;2022-08-03T17:29:46;0.98;;;0.60;;
43676;SDS011;29275;48.800;18.102;2022-08-03T17:32:49;2.00;;;0.70;;
43676;SDS011;29275;48.800;18.102;2022-08-03T17:35:58;1.42;;;0.70;;
43676;SDS011;29275;48.800;18.102;2022-08-03T17:39:01;0.80;;;0.57;;
43676;SDS011;29275;48.800;18.102;2022-08-03T17:42:10;1.80;;;0.93;;
43676;SDS011;29275;48.800;18.102;2022-08-03T17:45:34;1.20;;;0.70;;
43676;SDS011;29275;48.800;18.102;2022-08-03T17:48:53;3.42;;;1.50;;
43676;SDS011;29275;48.800;18.102;2022-08-03T17:52:00;1.63;;;1.00;;
43676;SDS011;29275;48.800;18.102;2022-08-03T17:55:13;1.35;;;0.70;;
43676;SDS011;29275;48.800;18.102;2022-08-03T18:03:26;3.80;;;0.70;;
43676;SDS011;29275;48.800;18.102;2022-08-03T18:06:24;0.90;;;0.60;;
43676;SDS011;29275;48.800;18.102;2022-08-03T18:09:32;1.88;;;0.90;;
43676;SDS011;29275;48.800;18.102;2022-08-03T18:13:01;1.58;;;0.80;;
43676;SDS011;29275;48.800;18.102;2022-08-03T18:16:11;2.72;;;0.85;;
43676;SDS011;29275;48.800;18.102;2022-08-03T18:19:40;1.75;;;0.68;;
43676;SDS011;29275;48.800;18.102;2022-08-03T18:23:04;1.65;;;0.90;;
43676;SDS011;29275;48.800;18.102;2022-08-03T18:26:09;1.33;;;0.80;;
43676;SDS011;29275;48.800;18.102;2022-08-03T18:29:15;1.30;;;0.80;;
43676;SDS011;29275;48.800;18.102;2022-08-03T18:32:24;5.50;;;0.77;;
43676;SDS011;29275;48.800;18.102;2022-08-03T18:35:28;0.73;;;0.60;;
43676;SDS011;29275;48.800;18.102;2022-08-03T18:38:52;1.70;;;0.52;;
43676;SDS011;29275;48.800;18.102;2022-08-03T18:41:59;5.07;;;1.00;;
43676;SDS011;29275;48.800;18.102;2022-08-03T18:45:04;1.15;;;0.70;;
43676;SDS011;29275;48.800;18.102;2022-08-03T18:48:38;2.75;;;0.82;;
43676;SDS011;29275;48.800;18.102;2022-08-03T18:51:51;1.33;;;0.80;;
43676;SDS011;29275;48.800;18.102;2022-08-03T18:55:02;1.25;;;0.70;;
43676;SDS011;29275;48.800;18.102;2022-08-03T19:01:53;2.17;;;0.82;;
43676;SDS011;29275;48.800;18.102;2022-08-03T19:05:05;1.45;;;0.88;;
43676;SDS011;29275;48.800;18.102;2022-08-03T19:08:15;1.67;;;0.98;;
43676;SDS011;29275;48.800;18.102;2022-08-03T19:11:36;1.63;;;0.90;;
43676;SDS011;29275;48.800;18.102;2022-08-03T19:15:09;4.82;;;1.25;;
43676;SDS011;29275;48.800;18.102;2022-08-03T19:18:33;2.13;;;0.90;;
43676;SDS011;29275;48.800;18.102;2022-08-03T19:21:36;1.63;;;1.02;;
43676;SDS011;29275;48.800;18.102;2022-08-03T19:24:41;1.87;;;0.90;;